Terminal Aerodrome Forecast
Issued by NWS Quad Cities IA IL

Home | Current Version | Previous Version | Graphics & Text | Print | Product List | Glossary On
Versions: 1 2 3 4 5 6 7 8 9 10 11 12 13 14 15 16 17 18 19 20 21 22
000
FTUS43 KDVN 130520
TAFDBQ
TAF
KDBQ 130520Z 1306/1406 20009KT P6SM OVC080
     FM131500 27013G20KT P6SM BKN070
     FM131800 31024G34KT P6SM BKN030
     FM140000 33015G20KT P6SM SCT015 BKN025=

USA.gov is the U.S. government's official web portal to all federal, state and local government web resources and services.